Time;durP1;ratioP1;P1;durP2;ratioP2;P2;SDS_P1;SDS_P2;PMS_P1;PMS_P2;Temp;Humidity;BMP_temperature;BMP_pressure;BME280_temperature;BME280_humidity;BME280_pressure;Samples;Min_cycle;Max_cycle;Signal;HPM_P1;HPM_P2
2022/06/03 00:01:22;;;;;;;4.30;3.47;;;11.60;81.00;;;;;;610369;233;26889;-63
2022/06/03 00:04:00;;;;;;;3.90;3.12;;;11.70;81.70;;;;;;611097;231;26825;-64
2022/06/03 00:06:42;;;;;;;3.10;2.80;;;11.60;81.90;;;;;;610825;235;26582;-64
2022/06/03 00:09:17;;;;;;;3.65;3.33;;;11.60;82.70;;;;;;603378;235;26644;-64
2022/06/03 00:11:59;;;;;;;3.35;3.05;;;11.50;82.60;;;;;;609818;236;26587;-64
2022/06/03 00:14:49;;;;;;;4.18;3.28;;;11.60;83.90;;;;;;602631;236;26668;-64
2022/06/03 00:17:26;;;;;;;3.60;3.30;;;11.60;84.30;;;;;;607268;236;26595;-64
2022/06/03 00:20:12;;;;;;;3.83;3.22;;;11.50;84.10;;;;;;609418;236;26631;-63
2022/06/03 00:22:56;;;;;;;3.05;2.75;;;11.50;84.50;;;;;;606112;236;26902;-64
2022/06/03 00:25:27;;;;;;;2.85;2.65;;;11.50;84.70;;;;;;609614;236;26680;-64
2022/06/03 00:28:04;;;;;;;3.58;3.28;;;11.50;85.10;;;;;;609440;236;26847;-64
2022/06/03 00:30:34;;;;;;;3.80;3.50;;;11.50;85.20;;;;;;609581;236;26885;-64
2022/06/03 00:33:32;;;;;;;3.70;3.20;;;11.50;85.50;;;;;;609810;236;26835;-64
2022/06/03 00:36:18;;;;;;;4.45;3.55;;;11.50;85.60;;;;;;584307;236;26625;-64
2022/06/03 00:38:54;;;;;;;4.28;3.40;;;11.40;86.50;;;;;;607180;236;26588;-64
2022/06/03 00:41:42;;;;;;;3.53;3.22;;;11.40;86.90;;;;;;609642;236;26560;-64
2022/06/03 00:44:12;;;;;;;4.28;3.53;;;11.40;86.90;;;;;;603174;236;26592;-67
2022/06/03 00:46:51;;;;;;;3.90;3.60;;;11.40;86.90;;;;;;609531;236;26567;-66
2022/06/03 00:49:23;;;;;;;5.40;3.83;;;11.30;87.00;;;;;;610242;231;26790;-69
2022/06/03 00:51:57;;;;;;;12.60;4.62;;;11.40;87.30;;;;;;609746;236;26558;-66
2022/06/03 00:54:35;;;;;;;4.20;3.80;;;11.30;87.50;;;;;;610235;236;26589;-64
2022/06/03 00:57:24;;;;;;;4.87;3.47;;;11.30;87.50;;;;;;609562;236;26839;-64
2022/06/03 01:00:00;;;;;;;5.50;3.95;;;11.30;87.70;;;;;;602605;236;26645;-65
2022/06/03 01:02:32;;;;;;;6.00;3.92;;;11.30;87.50;;;;;;609420;236;26844;-66
2022/06/03 01:05:03;;;;;;;3.90;3.35;;;11.20;88.70;;;;;;609258;236;26588;-66
2022/06/03 01:07:51;;;;;;;3.85;3.50;;;11.20;88.70;;;;;;609260;236;26585;-65
2022/06/03 01:10:23;;;;;;;4.80;3.95;;;11.10;89.10;;;;;;608646;236;26847;-65
2022/06/03 01:12:57;;;;;;;3.70;3.40;;;11.10;89.70;;;;;;610366;233;26589;-65
2022/06/03 01:15:39;;;;;;;5.53;3.53;;;11.10;90.20;;;;;;610355;235;26630;-66
2022/06/03 01:18:22;;;;;;;5.75;3.67;;;11.10;90.30;;;;;;610807;235;26648;-66
2022/06/03 01:21:14;;;;;;;5.18;3.42;;;11.10;90.30;;;;;;609957;235;26587;-66
2022/06/03 01:24:06;;;;;;;5.43;3.67;;;11.10;90.30;;;;;;610048;231;26597;-66
2022/06/03 01:26:34;;;;;;;5.62;3.78;;;11.10;90.40;;;;;;602887;236;26645;-64
2022/06/03 01:29:34;;;;;;;4.45;3.40;;;11.00;90.40;;;;;;608919;236;26821;-66
2022/06/03 01:32:19;;;;;;;3.50;3.20;;;11.00;90.70;;;;;;609770;236;26629;-66
2022/06/03 01:35:07;;;;;;;4.25;3.22;;;11.00;90.70;;;;;;608643;235;26680;-66
2022/06/03 01:37:35;;;;;;;5.00;3.83;;;11.00;90.90;;;;;;602064;236;26652;-65
2022/06/03 01:40:20;;;;;;;3.50;2.97;;;11.00;90.70;;;;;;609555;236;26609;-65
2022/06/03 01:42:53;;;;;;;4.82;3.42;;;11.00;90.60;;;;;;609102;236;26657;-64
2022/06/03 01:45:47;;;;;;;4.40;3.33;;;11.00;90.90;;;;;;609599;236;26679;-64
2022/06/03 01:48:26;;;;;;;4.32;3.22;;;11.00;90.90;;;;;;609708;236;26653;-65
2022/06/03 01:51:13;;;;;;;4.30;3.90;;;11.00;90.80;;;;;;609743;236;26820;-65
2022/06/03 01:54:02;;;;;;;4.68;3.60;;;10.90;91.00;;;;;;602525;236;26688;-65
2022/06/03 01:56:30;;;;;;;3.72;3.20;;;10.90;91.00;;;;;;609838;236;26754;-66
2022/06/03 01:59:12;;;;;;;3.58;3.25;;;10.90;91.20;;;;;;608813;236;26572;-66
2022/06/03 02:01:57;;;;;;;3.50;3.20;;;10.90;91.20;;;;;;609524;236;26580;-66
2022/06/03 02:04:44;;;;;;;3.50;3.20;;;10.80;91.20;;;;;;608222;235;26706;-66
2022/06/03 02:07:16;;;;;;;3.50;3.20;;;10.80;91.30;;;;;;602595;236;27193;-66
2022/06/03 02:10:06;;;;;;;3.37;3.08;;;10.80;91.40;;;;;;608972;236;26585;-66
2022/06/03 02:12:43;;;;;;;4.35;3.42;;;10.80;91.40;;;;;;602796;236;26642;-66
2022/06/03 02:15:23;;;;;;;3.65;3.35;;;10.80;91.70;;;;;;609202;236;26608;-66
2022/06/03 02:17:59;;;;;;;3.87;3.35;;;10.80;92.00;;;;;;609561;236;26597;-66
2022/06/03 02:20:31;;;;;;;4.80;3.70;;;10.70;92.40;;;;;;609584;236;26581;-66
2022/06/03 02:22:58;;;;;;;3.50;3.20;;;10.70;92.40;;;;;;607606;236;26581;-66
2022/06/03 02:25:40;;;;;;;3.72;2.97;;;10.70;92.50;;;;;;610542;233;26891;-66
2022/06/03 02:28:13;;;;;;;6.05;3.10;;;10.70;92.70;;;;;;610928;235;26604;-66
2022/06/03 02:30:57;;;;;;;3.30;2.95;;;10.70;92.90;;;;;;610240;235;27116;-66
2022/06/03 02:33:32;;;;;;;5.07;4.05;;;10.70;93.00;;;;;;608900;235;26833;-64
2022/06/03 02:36:34;;;;;;;3.47;3.17;;;10.60;92.90;;;;;;609462;236;26569;-64
2022/06/03 02:39:16;;;;;;;3.80;3.40;;;10.60;93.20;;;;;;583666;236;26879;-64
2022/06/03 02:41:52;;;;;;;4.37;3.50;;;10.60;93.20;;;;;;609742;236;26848;-64
2022/06/03 02:44:31;;;;;;;4.47;3.53;;;10.60;93.20;;;;;;610124;235;26652;-64
2022/06/03 02:47:36;;;;;;;3.72;2.95;;;10.60;93.30;;;;;;609067;236;26623;-65
2022/06/03 02:50:30;;;;;;;4.03;3.62;;;10.60;93.40;;;;;;608032;236;26657;-65
2022/06/03 02:53:08;;;;;;;3.30;3.00;;;10.60;93.30;;;;;;607545;236;26671;-65
2022/06/03 02:55:44;;;;;;;4.10;3.25;;;10.60;93.30;;;;;;610147;236;26664;-65
2022/06/03 02:58:14;;;;;;;3.55;3.12;;;10.60;93.20;;;;;;609103;236;26999;-65
2022/06/03 03:01:01;;;;;;;2.97;2.70;;;10.60;93.40;;;;;;609214;236;26675;-65
2022/06/03 03:03:36;;;;;;;3.47;3.17;;;10.60;93.70;;;;;;599887;236;26653;-65
2022/06/03 03:06:10;;;;;;;3.53;3.05;;;10.60;93.70;;;;;;609411;236;26600;-65
2022/06/03 03:08:44;;;;;;;3.72;3.37;;;10.60;94.00;;;;;;608264;236;26630;-65
2022/06/03 03:11:14;;;;;;;3.67;3.22;;;10.60;94.00;;;;;;608801;236;26807;-65
2022/06/03 03:13:51;;;;;;;3.35;3.12;;;10.60;94.00;;;;;;609721;236;26565;-65
2022/06/03 03:16:36;;;;;;;3.95;3.28;;;10.60;94.00;;;;;;609356;236;26580;-65
2022/06/03 03:19:08;;;;;;;3.83;3.20;;;10.60;94.00;;;;;;610269;232;26544;-65
2022/06/03 03:21:43;;;;;;;4.32;3.53;;;10.70;94.10;;;;;;609066;236;26816;-65
2022/06/03 03:24:11;;;;;;;3.42;3.12;;;10.70;94.10;;;;;;609396;235;26604;-65
2022/06/03 03:26:46;;;;;;;3.70;3.35;;;10.80;94.20;;;;;;608550;236;26581;-65
2022/06/03 03:29:28;;;;;;;4.05;3.17;;;10.80;94.70;;;;;;609726;236;26552;-65
2022/06/03 03:32:00;;;;;;;4.25;3.22;;;10.80;94.40;;;;;;609281;236;26656;-65
2022/06/03 03:34:34;;;;;;;3.97;3.55;;;10.90;94.60;;;;;;609276;236;26894;-65
2022/06/03 03:37:07;;;;;;;3.72;3.42;;;10.90;94.50;;;;;;611505;233;26821;-65
2022/06/03 03:39:52;;;;;;;2.85;2.62;;;10.90;94.60;;;;;;609976;235;26652;-65
2022/06/03 03:42:23;;;;;;;4.18;3.37;;;10.90;94.40;;;;;;609969;235;26580;-65
2022/06/03 03:45:23;;;;;;;3.60;3.30;;;10.90;94.40;;;;;;609326;235;26599;-65
2022/06/03 03:48:13;;;;;;;3.53;3.22;;;10.90;94.30;;;;;;585000;236;26881;-65
2022/06/03 03:51:02;;;;;;;3.33;3.03;;;11.00;94.50;;;;;;610038;236;26551;-65
2022/06/03 03:53:36;;;;;;;3.10;2.65;;;11.00;94.50;;;;;;609236;236;26596;-65
2022/06/03 03:56:07;;;;;;;4.05;3.20;;;11.00;94.70;;;;;;610186;236;26615;-65
2022/06/03 03:59:00;;;;;;;4.43;3.17;;;11.00;94.80;;;;;;608846;236;26854;-65
2022/06/03 04:01:34;;;;;;;3.60;3.20;;;11.00;94.40;;;;;;609021;236;26882;-65
2022/06/03 04:04:18;;;;;;;3.37;3.08;;;11.10;94.30;;;;;;608790;235;26656;-65
2022/06/03 04:06:58;;;;;;;3.75;3.40;;;11.20;94.30;;;;;;609772;236;26645;-65
2022/06/03 04:09:38;;;;;;;3.33;3.03;;;11.20;94.20;;;;;;610144;236;26846;-65
2022/06/03 04:12:29;;;;;;;3.10;2.90;;;11.20;94.00;;;;;;609481;236;26845;-65
2022/06/03 04:15:14;;;;;;;3.30;3.00;;;11.30;93.90;;;;;;608751;236;26847;-65
2022/06/03 04:18:08;;;;;;;3.60;3.28;;;11.40;93.70;;;;;;599768;236;26671;-65
2022/06/03 04:20:47;;;;;;;3.03;2.83;;;11.50;93.50;;;;;;609854;236;26581;-65
2022/06/03 04:23:26;;;;;;;3.40;3.10;;;11.60;93.20;;;;;;609487;236;26584;-64
2022/06/03 04:25:59;;;;;;;3.97;3.20;;;11.60;92.90;;;;;;609821;236;26887;-66
2022/06/03 04:28:35;;;;;;;3.67;2.83;;;11.70;92.80;;;;;;608639;236;26560;-64
2022/06/03 04:31:38;;;;;;;3.20;2.85;;;11.80;92.60;;;;;;609421;236;26887;-64
2022/06/03 04:34:11;;;;;;;4.07;3.28;;;12.00;92.60;;;;;;584637;235;26676;-65
2022/06/03 04:37:00;;;;;;;3.70;3.20;;;12.10;92.00;;;;;;608558;236;26855;-65
2022/06/03 04:39:50;;;;;;;3.28;3.00;;;12.20;91.80;;;;;;608694;236;26583;-65
2022/06/03 04:42:43;;;;;;;3.50;3.15;;;12.30;91.10;;;;;;609440;236;26573;-65
2022/06/03 04:45:35;;;;;;;3.05;2.85;;;12.30;91.10;;;;;;601894;236;26671;-66
2022/06/03 04:48:19;;;;;;;3.83;3.30;;;12.40;90.80;;;;;;603585;235;26660;-66
2022/06/03 04:51:08;;;;;;;3.35;3.05;;;12.60;90.60;;;;;;603748;235;26640;-66
2022/06/03 04:53:54;;;;;;;4.22;3.62;;;12.70;90.20;;;;;;607032;234;26588;-66
2022/06/03 04:56:49;;;;;;;3.10;2.90;;;12.80;89.80;;;;;;606392;235;26608;-66
2022/06/03 04:59:31;;;;;;;3.20;2.90;;;13.00;89.00;;;;;;607375;236;27141;-66
2022/06/03 05:02:06;;;;;;;3.47;3.20;;;13.10;87.90;;;;;;609022;236;26595;-65
2022/06/03 05:04:55;;;;;;;4.18;2.78;;;13.20;87.30;;;;;;609870;235;26577;-65
2022/06/03 05:07:34;;;;;;;4.72;3.12;;;13.40;86.50;;;;;;607389;236;26665;-65
2022/06/03 05:10:12;;;;;;;3.97;3.28;;;13.60;84.90;;;;;;608693;236;26626;-65
2022/06/03 05:12:54;;;;;;;2.95;2.75;;;13.70;83.40;;;;;;607177;236;26610;-65
2022/06/03 05:15:28;;;;;;;3.10;2.65;;;13.90;82.50;;;;;;608685;236;26665;-66
2022/06/03 05:18:32;;;;;;;3.03;2.72;;;13.80;82.40;;;;;;608841;236;26636;-65
2022/06/03 05:21:14;;;;;;;3.10;2.90;;;14.00;81.20;;;;;;606576;236;26657;-65
2022/06/03 05:23:46;;;;;;;3.40;3.10;;;14.20;80.70;;;;;;608587;236;26858;-66
2022/06/03 05:26:23;;;;;;;3.87;3.08;;;14.30;79.50;;;;;;609217;236;26910;-66
2022/06/03 05:28:53;;;;;;;3.50;2.80;;;14.40;78.40;;;;;;609236;236;26591;-65
2022/06/03 05:31:24;;;;;;;3.33;2.97;;;14.60;77.70;;;;;;608659;236;26573;-65
2022/06/03 05:33:59;;;;;;;2.80;2.60;;;14.70;76.60;;;;;;608612;236;26587;-65
2022/06/03 05:36:35;;;;;;;3.60;3.25;;;15.00;75.00;;;;;;609232;236;26598;-65
2022/06/03 05:39:28;;;;;;;3.58;2.87;;;14.90;74.90;;;;;;608445;236;26852;-66
2022/06/03 05:42:24;;;;;;;3.40;3.10;;;15.30;74.10;;;;;;602799;236;26648;-65
2022/06/03 05:45:15;;;;;;;2.83;2.50;;;15.20;74.50;;;;;;607236;236;26593;-65
2022/06/03 05:47:41;;;;;;;3.00;2.70;;;15.40;73.20;;;;;;603317;231;26836;-65
2022/06/03 05:50:28;;;;;;;2.90;2.67;;;15.50;72.20;;;;;;609836;236;26779;-65
2022/06/03 05:53:03;;;;;;;2.95;2.72;;;15.70;71.40;;;;;;609164;236;26553;-65
2022/06/03 05:55:37;;;;;;;3.50;2.87;;;15.80;70.00;;;;;;610004;236;26819;-65
2022/06/03 05:58:13;;;;;;;3.20;2.92;;;16.10;69.80;;;;;;609524;233;26549;-65
2022/06/03 06:01:01;;;;;;;2.72;2.53;;;16.10;69.80;;;;;;611476;235;26544;-65
2022/06/03 06:03:47;;;;;;;2.70;2.50;;;16.20;68.30;;;;;;604227;235;26599;-66
2022/06/03 06:06:15;;;;;;;3.12;2.80;;;16.50;65.60;;;;;;603349;235;26661;-64
2022/06/03 06:08:51;;;;;;;2.90;2.60;;;16.50;65.60;;;;;;609306;235;26584;-65
2022/06/03 06:11:27;;;;;;;2.67;2.47;;;16.60;66.20;;;;;;610133;236;26585;-65
2022/06/03 06:14:20;;;;;;;3.37;2.37;;;16.80;63.90;;;;;;610109;236;26596;-65
2022/06/03 06:16:47;;;;;;;2.60;2.40;;;16.80;63.60;;;;;;609304;236;26610;-65
2022/06/03 06:19:19;;;;;;;2.70;2.47;;;17.00;63.30;;;;;;610128;236;26872;-65
2022/06/03 06:21:52;;;;;;;2.30;2.15;;;17.10;62.80;;;;;;609470;236;26856;-65
2022/06/03 06:24:39;;;;;;;3.25;2.00;;;17.20;62.10;;;;;;610104;236;26658;-65
2022/06/03 06:27:08;;;;;;;3.25;2.53;;;17.30;61.70;;;;;;609003;236;27031;-65
2022/06/03 06:29:54;;;;;;;2.20;2.10;;;17.40;62.00;;;;;;609085;236;26646;-65
2022/06/03 06:32:49;;;;;;;2.03;1.92;;;17.50;59.50;;;;;;606509;236;26627;-65
2022/06/03 06:35:38;;;;;;;2.05;1.95;;;17.60;60.00;;;;;;609012;235;26885;-66
2022/06/03 06:38:11;;;;;;;1.83;1.73;;;17.80;58.70;;;;;;602415;236;26646;-66
2022/06/03 06:41:09;;;;;;;2.15;1.95;;;17.80;58.60;;;;;;609488;236;26588;-66
2022/06/03 06:43:39;;;;;;;2.55;2.35;;;18.00;58.20;;;;;;583831;235;26664;-66
2022/06/03 06:46:32;;;;;;;1.95;1.85;;;18.00;58.20;;;;;;609669;236;26545;-66
2022/06/03 06:49:18;;;;;;;1.90;1.80;;;18.10;57.30;;;;;;607161;236;26600;-66
2022/06/03 06:52:09;;;;;;;1.92;1.75;;;18.20;57.50;;;;;;606648;236;26631;-65
2022/06/03 06:54:38;;;;;;;1.83;1.48;;;18.30;57.30;;;;;;606477;235;26609;-65
2022/06/03 06:57:22;;;;;;;1.70;1.60;;;18.40;56.60;;;;;;609286;236;26830;-65
2022/06/03 06:59:51;;;;;;;2.03;1.62;;;18.40;56.50;;;;;;609798;236;26585;-65
2022/06/03 07:02:33;;;;;;;1.70;1.60;;;18.50;57.50;;;;;;609647;236;26594;-67
2022/06/03 07:05:08;;;;;;;2.22;2.10;;;18.60;57.10;;;;;;609604;236;26617;-66
2022/06/03 07:07:36;;;;;;;2.08;1.77;;;18.80;55.90;;;;;;609631;236;26613;-66
2022/06/03 07:10:07;;;;;;;1.85;1.50;;;18.80;56.30;;;;;;609950;233;26965;-66
2022/06/03 07:12:41;;;;;;;1.77;1.67;;;19.00;55.70;;;;;;610756;235;26885;-66
2022/06/03 07:15:15;;;;;;;2.30;2.12;;;19.00;55.60;;;;;;610784;235;26686;-66
2022/06/03 07:20:22;;;;;;;1.58;1.20;;;19.20;54.80;;;;;;610894;235;26544;-66
2022/06/03 07:22:51;;;;;;;1.40;1.30;;;19.20;55.00;;;;;;610402;236;26560;-66
2022/06/03 07:25:23;;;;;;;1.35;1.30;;;19.30;53.80;;;;;;610630;236;26596;-65
2022/06/03 07:28:06;;;;;;;2.12;1.67;;;19.30;54.10;;;;;;610627;236;26606;-66
2022/06/03 07:30:36;;;;;;;1.02;1.02;;;19.30;54.10;;;;;;609799;236;26600;-66
2022/06/03 07:33:10;;;;;;;1.40;1.35;;;19.40;54.70;;;;;;610387;236;26617;-66
2022/06/03 07:35:48;;;;;;;1.17;1.17;;;19.50;54.50;;;;;;610374;236;26832;-66
2022/06/03 07:38:29;;;;;;;1.15;1.10;;;19.60;54.30;;;;;;609897;236;26627;-71
2022/06/03 07:40:59;;;;;;;1.37;1.27;;;19.70;54.60;;;;;;608597;236;26643;-70
2022/06/03 07:43:31;;;;;;;2.47;1.92;;;19.70;54.20;;;;;;609733;232;26624;-69
2022/06/03 07:46:17;;;;;;;1.87;1.75;;;19.80;53.40;;;;;;609482;236;26665;-70
2022/06/03 07:48:45;;;;;;;1.30;1.20;;;19.70;53.30;;;;;;609665;236;26597;-70
2022/06/03 07:51:18;;;;;;;1.23;1.17;;;19.80;52.60;;;;;;609852;235;26587;-70
2022/06/03 07:53:50;;;;;;;2.00;1.90;;;19.90;50.00;;;;;;609620;235;26593;-70
2022/06/03 07:56:21;;;;;;;1.65;1.10;;;19.90;50.00;;;;;;609787;236;26654;-70
2022/06/03 07:58:51;;;;;;;1.52;1.42;;;20.00;50.60;;;;;;609863;236;26641;-70
2022/06/03 08:01:22;;;;;;;1.50;1.40;;;20.10;51.00;;;;;;609442;236;26830;-69
2022/06/03 08:03:50;;;;;;;1.30;1.30;;;20.10;51.30;;;;;;609909;236;26581;-69
2022/06/03 08:06:18;;;;;;;1.30;1.20;;;20.10;50.80;;;;;;609912;235;26588;-69
2022/06/03 08:11:23;;;;;;;1.35;1.25;;;20.10;51.10;;;;;;609895;235;26657;-69
2022/06/03 08:13:49;;;;;;;1.58;1.48;;;20.10;51.00;;;;;;609589;235;26585;-69
2022/06/03 08:16:34;;;;;;;1.35;1.25;;;20.10;49.60;;;;;;609814;236;26549;-69
2022/06/03 08:19:18;;;;;;;1.62;1.52;;;20.10;49.60;;;;;;609653;231;26634;-71
2022/06/03 08:21:47;;;;;;;3.87;1.77;;;20.20;49.50;;;;;;610397;233;26639;-69
2022/06/03 08:24:16;;;;;;;1.85;1.17;;;20.10;51.10;;;;;;604034;234;26851;-69
2022/06/03 08:26:44;;;;;;;0.98;0.98;;;20.10;51.10;;;;;;605388;237;26601;-69
2022/06/03 08:29:14;;;;;;;1.00;1.00;;;20.30;50.30;;;;;;605665;235;26615;-69
2022/06/03 08:31:42;;;;;;;1.33;1.25;;;20.20;50.20;;;;;;603251;237;26648;-70
2022/06/03 08:34:10;;;;;;;2.50;1.30;;;20.30;50.40;;;;;;601988;237;26590;-70
2022/06/03 08:36:38;;;;;;;1.00;1.00;;;20.30;48.90;;;;;;601787;236;26581;-70
2022/06/03 08:39:06;;;;;;;0.98;0.98;;;20.30;48.50;;;;;;608846;236;26580;-69
2022/06/03 08:41:53;;;;;;;2.90;1.55;;;20.20;48.10;;;;;;603642;238;26554;-69
2022/06/03 08:44:34;;;;;;;1.00;1.00;;;20.20;49.90;;;;;;602806;236;26631;-70
2022/06/03 08:47:06;;;;;;;1.65;1.00;;;20.10;49.70;;;;;;609257;236;26589;-69
2022/06/03 08:49:31;;;;;;;1.02;1.00;;;20.30;49.00;;;;;;603926;238;26562;-70
2022/06/03 08:52:03;;;;;;;1.30;1.30;;;20.30;48.40;;;;;;605256;236;26621;-69
2022/06/03 08:54:36;;;;;;;1.10;1.10;;;20.30;48.50;;;;;;604726;236;26836;-69
2022/06/03 08:57:16;;;;;;;0.90;0.90;;;20.30;50.00;;;;;;602939;235;26827;-69
2022/06/03 08:59:43;;;;;;;1.00;1.00;;;20.30;48.40;;;;;;606839;236;26602;-69
2022/06/03 09:02:11;;;;;;;1.20;1.10;;;20.40;49.40;;;;;;602397;236;26658;-69
2022/06/03 09:04:45;;;;;;;1.27;1.27;;;20.40;49.60;;;;;;609858;236;26580;-69
2022/06/03 09:07:27;;;;;;;1.37;1.20;;;20.40;49.70;;;;;;607783;236;26561;-70
2022/06/03 09:09:55;;;;;;;1.00;1.00;;;20.40;48.70;;;;;;608073;236;26577;-66
2022/06/03 09:12:40;;;;;;;1.20;1.10;;;20.40;49.10;;;;;;602141;236;26906;-65
2022/06/03 09:15:10;;;;;;;1.02;1.02;;;20.50;49.10;;;;;;605902;236;26861;-66
2022/06/03 09:17:56;;;;;;;2.17;1.27;;;20.60;47.60;;;;;;603346;236;26642;-65
2022/06/03 09:20:24;;;;;;;1.20;1.20;;;20.60;47.60;;;;;;611442;235;26877;-66
2022/06/03 09:22:52;;;;;;;1.40;1.30;;;20.60;48.80;;;;;;608210;235;26632;-65
2022/06/03 09:25:19;;;;;;;1.60;1.50;;;20.60;46.50;;;;;;601023;236;26657;-65
2022/06/03 09:27:47;;;;;;;1.83;1.30;;;20.50;46.40;;;;;;603551;237;26576;-66
2022/06/03 09:30:14;;;;;;;1.60;1.50;;;20.40;46.00;;;;;;601895;237;26864;-67
2022/06/03 09:32:47;;;;;;;1.62;1.52;;;20.40;46.40;;;;;;602167;235;26659;-66
2022/06/03 09:35:09;;;;;;;1.10;1.10;;;20.50;47.60;;;;;;604730;236;26871;-66
2022/06/03 09:37:37;;;;;;;1.05;1.05;;;20.50;48.50;;;;;;604186;237;26590;-65
2022/06/03 09:40:05;;;;;;;1.55;1.25;;;20.50;48.50;;;;;;611593;234;26606;-64
2022/06/03 09:42:32;;;;;;;1.20;1.10;;;20.60;48.20;;;;;;605052;234;26584;-66
2022/06/03 09:45:00;;;;;;;1.45;1.27;;;20.70;46.70;;;;;;603467;237;26639;-65
2022/06/03 09:47:28;;;;;;;1.10;1.10;;;20.80;47.30;;;;;;603822;238;26622;-66
2022/06/03 09:49:55;;;;;;;2.15;1.60;;;20.70;47.20;;;;;;608522;236;26564;-66
2022/06/03 09:52:22;;;;;;;2.45;1.50;;;20.80;45.50;;;;;;609804;235;26629;-65
2022/06/03 09:54:50;;;;;;;1.70;1.60;;;20.70;47.80;;;;;;602128;235;26586;-66
2022/06/03 09:57:25;;;;;;;1.10;1.10;;;20.80;48.30;;;;;;603623;237;26550;-66
2022/06/03 09:59:54;;;;;;;1.30;1.20;;;20.80;47.50;;;;;;604913;234;26587;-65
2022/06/03 10:02:22;;;;;;;2.62;1.37;;;20.90;46.20;;;;;;605108;233;26640;-66
2022/06/03 10:04:50;;;;;;;1.00;1.00;;;20.80;45.20;;;;;;608642;236;26668;-65
2022/06/03 10:07:18;;;;;;;1.05;1.05;;;20.80;45.10;;;;;;607220;236;26612;-65
2022/06/03 10:17:26;;;;;;;0.80;0.80;;;21.10;45.30;;;;;;607557;234;26631;-65
2022/06/03 10:19:54;;;;;;;1.10;1.10;;;21.00;45.00;;;;;;604472;237;26582;-65
2022/06/03 10:22:21;;;;;;;0.95;0.95;;;21.00;45.00;;;;;;608574;236;26601;-64
2022/06/03 10:24:48;;;;;;;2.30;1.50;;;21.00;46.30;;;;;;602210;237;26668;-64
2022/06/03 10:27:18;;;;;;;2.40;1.30;;;20.90;44.80;;;;;;606794;236;26904;-64
2022/06/03 10:29:45;;;;;;;1.00;1.00;;;20.90;43.50;;;;;;604264;236;26660;-65
2022/06/03 10:32:14;;;;;;;1.35;1.35;;;20.90;45.30;;;;;;604022;237;26895;-66
2022/06/03 10:34:40;;;;;;;1.30;1.20;;;21.00;44.10;;;;;;603785;234;26589;-65
2022/06/03 10:37:07;;;;;;;3.33;1.27;;;21.10;44.10;;;;;;604695;233;26652;-65
2022/06/03 10:39:35;;;;;;;1.00;1.00;;;21.30;45.40;;;;;;604621;236;26550;-65
2022/06/03 10:42:03;;;;;;;0.88;0.88;;;21.40;46.10;;;;;;607856;236;26595;-65
2022/06/03 10:44:33;;;;;;;0.98;0.90;;;21.50;45.30;;;;;;608806;235;26630;-64
2022/06/03 10:47:02;;;;;;;1.00;1.00;;;21.50;45.30;;;;;;603258;238;26625;-70
2022/06/03 10:49:27;;;;;;;0.80;0.80;;;21.50;45.60;;;;;;607375;235;26595;-69
2022/06/03 11:02:07;;;;;;;0.90;0.90;;;21.90;44.90;;;;;;602280;237;26587;-70
2022/06/03 11:04:38;;;;;;;1.10;1.10;;;21.90;45.10;;;;;;601767;239;26614;-70
2022/06/03 11:07:17;;;;;;;0.80;0.80;;;21.90;45.10;;;;;;602483;237;26590;-70
2022/06/03 11:09:44;;;;;;;1.02;1.02;;;22.00;44.60;;;;;;603987;236;26568;-70
2022/06/03 11:12:11;;;;;;;1.73;1.37;;;22.00;45.30;;;;;;604708;235;26595;-70
2022/06/03 11:14:40;;;;;;;2.62;1.20;;;22.00;44.40;;;;;;606456;236;26682;-69
2022/06/03 11:17:10;;;;;;;1.00;1.00;;;22.00;44.40;;;;;;602242;237;26936;-70
2022/06/03 11:19:39;;;;;;;1.02;0.88;;;22.10;45.40;;;;;;602574;238;26599;-70
2022/06/03 11:22:20;;;;;;;0.65;0.65;;;22.20;45.50;;;;;;608239;235;26867;-70
2022/06/03 11:24:50;;;;;;;39.10;6.80;;;22.30;45.00;;;;;;607714;236;26609;-69
2022/06/03 11:27:17;;;;;;;134.80;26.45;;;22.40;44.40;;;;;;601437;239;26625;-70
2022/06/03 11:29:45;;;;;;;118.00;27.10;;;22.40;42.90;;;;;;602348;237;26657;-69
2022/06/03 11:32:12;;;;;;;107.22;22.45;;;22.40;42.90;;;;;;601834;238;26595;-69
2022/06/03 11:34:40;;;;;;;31.65;7.60;;;22.40;43.20;;;;;;604219;238;26829;-69
2022/06/03 11:37:09;;;;;;;15.77;4.55;;;22.50;43.40;;;;;;602601;235;26610;-69
2022/06/03 11:39:44;;;;;;;6.25;2.25;;;22.50;43.30;;;;;;604373;238;26551;-70
2022/06/03 11:42:13;;;;;;;42.85;10.75;;;22.60;43.50;;;;;;604769;238;26574;-70
2022/06/03 11:44:54;;;;;;;48.15;12.50;;;22.70;43.90;;;;;;604374;238;26642;-71
2022/06/03 11:47:23;;;;;;;3.55;1.73;;;22.70;43.80;;;;;;604432;238;26564;-71
2022/06/03 11:49:50;;;;;;;5.10;1.75;;;22.70;44.00;;;;;;604386;238;26873;-71
2022/06/03 11:52:17;;;;;;;12.02;3.97;;;22.80;45.30;;;;;;604696;237;26554;-71
2022/06/03 11:54:44;;;;;;;1.35;1.10;;;22.90;43.10;;;;;;604752;237;26890;-71
2022/06/03 11:57:12;;;;;;;1.60;1.23;;;22.90;43.70;;;;;;605878;235;26601;-71
2022/06/03 11:59:53;;;;;;;0.80;0.80;;;23.10;44.20;;;;;;606062;236;26828;-71
2022/06/03 12:02:37;;;;;;;0.80;0.80;;;23.20;43.70;;;;;;605858;236;26563;-71
2022/06/03 12:05:21;;;;;;;17.02;5.22;;;23.20;44.30;;;;;;605318;237;26605;-71
2022/06/03 12:07:49;;;;;;;1.23;0.95;;;23.30;42.80;;;;;;605482;238;26610;-71
2022/06/03 12:10:40;;;;;;;1.70;1.60;;;23.30;43.50;;;;;;605255;238;26822;-71
2022/06/03 12:15:41;;;;;;;8.90;3.08;;;23.80;41.30;;;;;;604660;238;26619;-71
2022/06/03 12:18:16;;;;;;;7.07;2.53;;;23.90;41.20;;;;;;604724;238;26571;-71
2022/06/03 12:20:53;;;;;;;5.35;2.47;;;24.10;40.50;;;;;;602678;238;26577;-71
2022/06/03 12:23:52;;;;;;;1.00;1.00;;;24.40;40.40;;;;;;604845;237;26825;-72
2022/06/03 12:26:26;;;;;;;1.27;1.17;;;24.60;40.60;;;;;;604843;238;26866;-72
2022/06/03 12:28:54;;;;;;;1.00;0.90;;;25.40;41.20;;;;;;604756;238;26579;-71
2022/06/03 12:31:36;;;;;;;4.47;2.00;;;25.40;41.20;;;;;;604827;238;26832;-71
2022/06/03 12:34:14;;;;;;;1.00;1.00;;;25.70;39.20;;;;;;604602;238;26658;-72
2022/06/03 12:37:00;;;;;;;1.23;1.10;;;26.30;40.00;;;;;;604019;238;26590;-71
2022/06/03 12:39:43;;;;;;;1.00;1.00;;;26.30;40.00;;;;;;604595;238;26584;-71
2022/06/03 12:42:11;;;;;;;1.50;1.17;;;26.80;39.40;;;;;;603596;238;26832;-71
2022/06/03 12:44:43;;;;;;;2.15;1.17;;;27.30;39.10;;;;;;604567;237;26613;-71
2022/06/03 12:47:46;;;;;;;2.80;2.25;;;27.70;36.70;;;;;;604590;238;26593;-71
2022/06/03 12:50:34;;;;;;;1.10;1.00;;;27.70;36.70;;;;;;604479;238;26593;-71
2022/06/03 12:53:21;;;;;;;1.10;1.00;;;28.20;38.00;;;;;;604597;237;26584;-71
2022/06/03 12:55:52;;;;;;;1.75;1.65;;;28.80;36.60;;;;;;604460;238;26610;-71
2022/06/03 12:58:21;;;;;;;0.93;0.93;;;28.70;36.50;;;;;;604887;237;26625;-71
2022/06/03 13:00:50;;;;;;;0.90;0.90;;;29.20;36.20;;;;;;603014;238;26611;-71
2022/06/03 13:03:41;;;;;;;1.12;1.12;;;29.80;35.70;;;;;;604886;237;26551;-71
2022/06/03 13:06:09;;;;;;;0.68;0.68;;;30.40;35.80;;;;;;604519;238;26636;-71
2022/06/03 13:09:34;;;;;;;0.80;0.80;;;31.40;36.20;;;;;;605853;235;26568;-71
2022/06/03 13:11:06;;;;;;;1.92;1.80;;;31.90;33.60;;;;;;605821;237;26624;-71
2022/06/03 13:13:34;;;;;;;1.33;1.25;;;31.70;34.40;;;;;;605207;237;26565;-71
2022/06/03 13:16:14;;;;;;;0.70;0.70;;;32.90;34.50;;;;;;604922;237;26598;-71
2022/06/03 13:18:41;;;;;;;0.70;0.70;;;32.90;34.60;;;;;;605194;236;27300;-71
2022/06/03 13:21:18;;;;;;;1.60;1.50;;;33.70;32.10;;;;;;605143;237;26633;-71
2022/06/03 13:23:59;;;;;;;0.80;0.80;;;35.50;30.30;;;;;;605002;238;26629;-71
2022/06/03 13:26:44;;;;;;;1.17;1.17;;;35.40;30.60;;;;;;602844;237;27321;-71
2022/06/03 13:29:13;;;;;;;0.90;0.90;;;36.40;29.60;;;;;;600948;237;26612;-72
2022/06/03 13:31:59;;;;;;;0.70;0.70;;;38.40;28.40;;;;;;604741;238;26630;-72
2022/06/03 13:34:28;;;;;;;0.75;0.75;;;38.40;28.40;;;;;;603941;237;26848;-72
2022/06/03 13:36:55;;;;;;;3.00;1.55;;;42.30;27.80;;;;;;604876;237;26575;-71
2022/06/03 13:39:54;;;;;;;1.67;1.58;;;47.50;24.30;;;;;;602964;237;26563;-71
2022/06/03 13:45:11;;;;;;;4.75;2.15;;;49.50;23.30;;;;;;604669;238;26619;-72
2022/06/03 13:47:54;;;;;;;2.72;1.73;;;51.00;23.40;;;;;;604489;238;26782;-71
2022/06/03 13:50:35;;;;;;;2.92;1.45;;;52.50;21.70;;;;;;604514;237;26585;-71
2022/06/03 13:53:02;;;;;;;2.87;1.48;;;53.10;21.60;;;;;;604573;237;26320;-72
2022/06/03 13:55:34;;;;;;;1.45;1.30;;;53.20;20.80;;;;;;604447;237;26623;-71
2022/06/03 13:58:08;;;;;;;1.00;1.00;;;53.10;21.10;;;;;;603033;238;26581;-72
2022/06/03 14:00:36;;;;;;;1.10;1.10;;;54.30;20.90;;;;;;604218;238;26607;-71
2022/06/03 14:03:13;;;;;;;1.85;1.20;;;54.90;20.50;;;;;;604362;238;26825;-72